Delta Junction, AK (99737)

11:57 PM AKST on February 09, 2016 (GMT -0900)
Allen Army Air Field | | Change Station
CLOSE
Current Station
Airport
Location: Big Delta,
Elevation: 1306 ft
Nearby Weather Stations

Elev 1306 ft 63.99 °N, 145.72 °W | Updated 4 minutes ago

Clear
Clear
-1 °F
Feels Like -1 °F
N
0
Wind Variable Wind from North

Today
High -- | Low -- °F
--% Chance of Precip.
Yesterday
High -- | Low -- °F
Precip. -- in
Pressure 30.15 in
Visibility 10.0 miles
Clouds Clear
Dew Point -6 °F
Humidity 79%
Rainfall 0.00 in
Snow Depth Not available.
8:57 AM 4:56 PM
Waxing Crescent, 4% visible
METAR PABI 100853Z AUTO 00000KT 10SM CLR M18/M21 A3000 RMK AO2 SLP209 I1000 I3000 T11831211 410891189 56016 TSNO
Pressure 30.15 in
Visibility 10.0 miles
Clouds Clear
Dew Point -6 °F
Humidity 79%
Rainfall 0.00 in
Snow Depth Not available.
8:57 AM 4:56 PM
Waxing Crescent, 4% visible
METAR PABI 100853Z AUTO 00000KT 10SM CLR M18/M21 A3000 RMK AO2 SLP209 I1000 I3000 T11831211 410891189 56016 TSNO

10-Day Weather Forecast

Almanac

Astronomy

Feb. 09, 2016 Rise Set
Actual Time
Civil Twilight
Nautical Twilight
Astronomical Twilight
Moon
Length of Visible Light
Length of Day
Tomorrow will be .
, % of the Moon is Illuminated

Today's Extremes

State Highs State Lows

Community

WunderPhotos

Upload Photos

1,891,826 photos uploaded!

WunderBlog® & News

Nearby

Air Quality

  Air Quality AQ Index Pollutant
Not available.

Snow Depth

Station Depth Elevation

Earthquake Activity

City Distance Mag. Time & Date
Minimum magnitude displayed is 2.5.

Coastal Water Temperatures

Place Temperature

Stations

Nearby Weather Stations

Station Location Temp. Windchill Dew Point Humidity Wind Precip. Elev Updated Type
                   

Watches & Warnings

There are currently no watches in effect.